Time,TemperatureF,DewpointF,PressureIn,WindDirection,WindDirectionDegrees,WindSpeedMPH,WindSpeedGustMPH,Humidity,HourlyPrecipIn,Conditions,Clouds,dailyrainin,SoftwareType,DateUTC
2013-04-17 00:01:00,43.8,33.6,29.99,NW,325,0.0,3.0,67,0.00,,,0.00,WeatherCatV1.15B25,2013-04-17 07:01:00,
2013-04-17 00:06:00,43.8,33.6,29.99,NW,325,0.0,0.0,67,0.00,,,0.00,WeatherCatV1.15B25,2013-04-17 07:06:00,
2013-04-17 00:11:00,43.8,33.9,29.99,NW,325,0.0,2.0,68,0.00,,,0.00,WeatherCatV1.15B25,2013-04-17 07:11:00,
2013-04-17 00:16:00,43.7,33.5,29.99,NW,325,1.0,1.0,67,0.00,,,0.00,WeatherCatV1.15B25,2013-04-17 07:16:00,
2013-04-17 00:21:00,43.7,33.1,29.99,NW,325,0.0,0.0,66,0.00,,,0.00,WeatherCatV1.15B25,2013-04-17 07:21:00,
2013-04-17 00:26:00,43.6,33.7,30.00,NW,325,0.0,1.0,68,0.00,,,0.00,WeatherCatV1.15B25,2013-04-17 07:26:00,
2013-04-17 00:31:00,43.5,33.3,30.00,NW,325,0.0,0.0,67,0.00,,,0.00,WeatherCatV1.15B25,2013-04-17 07:31:00,
2013-04-17 00:36:00,43.4,33.6,30.00,NW,325,0.0,0.0,68,0.00,,,0.00,WeatherCatV1.15B25,2013-04-17 07:36:00,
2013-04-17 00:41:00,43.2,33.4,30.00,NW,325,0.0,0.0,68,0.00,,,0.00,WeatherCatV1.15B25,2013-04-17 07:41:00,
2013-04-17 00:46:00,43.0,33.5,30.00,NW,325,0.0,0.0,69,0.00,,,0.00,WeatherCatV1.15B25,2013-04-17 07:46:00,
2013-04-17 00:51:00,42.8,33.0,30.00,NW,325,0.0,0.0,68,0.00,,,0.00,WeatherCatV1.15B25,2013-04-17 07:51:00,
2013-04-17 00:56:00,42.6,32.8,30.00,NW,325,0.0,0.0,68,0.00,,,0.00,WeatherCatV1.15B25,2013-04-17 07:56:00,
2013-04-17 01:01:00,42.3,32.5,30.00,NW,325,0.0,1.0,68,0.00,,,0.00,WeatherCatV1.15B25,2013-04-17 08:01:00,
2013-04-17 01:06:00,41.8,32.4,30.01,NW,325,0.0,1.0,69,0.00,,,0.00,WeatherCatV1.15B25,2013-04-17 08:06:00,
2013-04-17 01:11:00,41.4,32.4,30.01,NW,325,0.0,0.0,70,0.00,,,0.00,WeatherCatV1.15B25,2013-04-17 08:11:00,
2013-04-17 01:16:00,40.9,32.2,30.01,NW,325,0.0,0.0,71,0.00,,,0.00,WeatherCatV1.15B25,2013-04-17 08:16:00,
2013-04-17 01:21:00,40.5,32.2,30.01,NW,325,0.0,0.0,72,0.00,,,0.00,WeatherCatV1.15B25,2013-04-17 08:21:00,
2013-04-17 01:26:00,40.0,32.4,30.02,NW,325,0.0,0.0,74,0.00,,,0.00,WeatherCatV1.15B25,2013-04-17 08:26:00,
2013-04-17 01:31:00,39.5,32.6,30.02,NW,325,0.0,1.0,76,0.00,,,0.00,WeatherCatV1.15B25,2013-04-17 08:31:00,
2013-04-17 01:36:00,39.0,32.7,30.02,NW,325,0.0,0.0,78,0.00,,,0.00,WeatherCatV1.15B25,2013-04-17 08:36:00,
2013-04-17 01:41:00,38.8,32.5,30.02,NW,325,0.0,2.0,78,0.00,,,0.00,WeatherCatV1.15B25,2013-04-17 08:41:00,
2013-04-17 01:46:00,38.7,32.4,30.03,NW,325,0.0,1.0,78,0.00,,,0.00,WeatherCatV1.15B25,2013-04-17 08:46:00,
2013-04-17 01:51:00,38.6,32.3,30.03,NW,325,0.0,0.0,78,0.00,,,0.00,WeatherCatV1.15B25,2013-04-17 08:51:00,
2013-04-17 01:56:00,38.5,32.2,30.03,NW,325,0.0,0.0,78,0.00,,,0.00,WeatherCatV1.15B25,2013-04-17 08:56:00,
2013-04-17 02:01:00,38.4,32.2,30.03,NW,325,0.0,0.0,78,0.00,,,0.00,WeatherCatV1.15B25,2013-04-17 09:01:00,
2013-04-17 02:06:00,38.2,32.3,30.03,NW,325,0.0,0.0,79,0.00,,,0.00,WeatherCatV1.15B25,2013-04-17 09:06:00,
2013-04-17 02:11:00,38.1,32.2,30.03,NW,325,0.0,0.0,79,0.00,,,0.00,WeatherCatV1.15B25,2013-04-17 09:11:00,
2013-04-17 02:16:00,38.0,32.1,30.03,NW,325,0.0,0.0,79,0.00,,,0.00,WeatherCatV1.15B25,2013-04-17 09:16:00,
2013-04-17 02:21:00,37.8,31.6,30.03,NW,325,0.0,0.0,78,0.00,,,0.00,WeatherCatV1.15B25,2013-04-17 09:21:00,
2013-04-17 02:26:00,37.5,31.3,30.03,NW,325,0.0,0.0,78,0.00,,,0.00,WeatherCatV1.15B25,2013-04-17 09:26:00,
2013-04-17 02:31:00,37.2,31.0,30.03,NW,325,0.0,0.0,78,0.00,,,0.00,WeatherCatV1.15B25,2013-04-17 09:31:00,
2013-04-17 02:36:00,36.9,31.0,30.03,NW,325,0.0,0.0,79,0.00,,,0.00,WeatherCatV1.15B25,2013-04-17 09:36:00,
2013-04-17 02:41:00,36.7,31.1,30.03,NW,325,0.0,0.0,80,0.00,,,0.00,WeatherCatV1.15B25,2013-04-17 09:41:00,
2013-04-17 02:46:00,36.6,31.6,30.03,NW,325,0.0,0.0,82,0.00,,,0.00,WeatherCatV1.15B25,2013-04-17 09:46:00,
2013-04-17 02:51:00,36.6,31.9,30.03,NW,325,0.0,0.0,83,0.00,,,0.00,WeatherCatV1.15B25,2013-04-17 09:51:00,
2013-04-17 02:56:00,36.5,31.8,30.03,NW,325,0.0,0.0,83,0.00,,,0.00,WeatherCatV1.15B25,2013-04-17 09:56:00,
2013-04-17 03:01:00,36.4,31.4,30.04,NW,325,0.0,0.0,82,0.00,,,0.00,WeatherCatV1.15B25,2013-04-17 10:01:00,
2013-04-17 03:06:00,36.2,31.2,30.04,NW,325,0.0,0.0,82,0.00,,,0.00,WeatherCatV1.15B25,2013-04-17 10:06:00,
2013-04-17 03:11:00,36.1,31.1,30.04,NW,325,0.0,0.0,82,0.00,,,0.00,WeatherCatV1.15B25,2013-04-17 10:11:00,
2013-04-17 03:16:00,36.0,31.3,30.04,NW,325,0.0,0.0,83,0.00,,,0.00,WeatherCatV1.15B25,2013-04-17 10:16:00,
2013-04-17 03:21:00,35.8,31.2,30.04,NW,325,0.0,0.0,83,0.00,,,0.00,WeatherCatV1.15B25,2013-04-17 10:21:00,
2013-04-17 03:26:00,35.7,31.1,30.05,NW,325,0.0,0.0,83,0.00,,,0.00,WeatherCatV1.15B25,2013-04-17 10:26:00,
2013-04-17 03:31:00,35.6,31.3,30.05,NW,325,0.0,0.0,84,0.00,,,0.00,WeatherCatV1.15B25,2013-04-17 10:31:00,
2013-04-17 03:36:00,35.5,31.2,30.05,NW,325,1.0,2.0,84,0.00,,,0.00,WeatherCatV1.15B25,2013-04-17 10:36:00,
2013-04-17 03:41:00,35.8,31.7,30.05,West,260,3.0,5.0,85,0.00,,,0.00,WeatherCatV1.15B25,2013-04-17 10:41:00,
2013-04-17 03:46:00,36.7,32.3,30.05,WSW,257,0.0,0.0,84,0.00,,,0.00,WeatherCatV1.15B25,2013-04-17 10:46:00,
2013-04-17 03:51:00,37.2,32.8,30.05,WSW,257,0.0,0.0,84,0.00,,,0.00,WeatherCatV1.15B25,2013-04-17 10:51:00,
2013-04-17 03:56:00,37.8,32.8,30.05,WSW,257,2.0,3.0,82,0.00,,,0.00,WeatherCatV1.15B25,2013-04-17 10:56:00,
2013-04-17 04:01:00,38.5,33.2,30.05,WSW,257,2.0,4.0,81,0.00,,,0.00,WeatherCatV1.15B25,2013-04-17 11:01:00,
2013-04-17 04:06:00,39.2,33.2,30.05,WSW,254,1.0,4.0,79,0.00,,,0.00,WeatherCatV1.15B25,2013-04-17 11:06:00,
2013-04-17 04:11:00,39.6,33.0,30.05,WSW,249,4.0,6.0,77,0.00,,,0.00,WeatherCatV1.15B25,2013-04-17 11:11:00,
2013-04-17 04:16:00,39.9,33.0,30.05,WSW,257,0.0,2.0,76,0.00,,,0.00,WeatherCatV1.15B25,2013-04-17 11:16:00,
2013-04-17 04:21:00,40.0,33.1,30.05,WSW,257,0.0,1.0,76,0.00,,,0.00,WeatherCatV1.15B25,2013-04-17 11:21:00,
2013-04-17 04:26:00,40.0,33.1,30.06,WSW,257,0.0,0.0,76,0.00,,,0.00,WeatherCatV1.15B25,2013-04-17 11:26:00,
2013-04-17 04:31:00,39.9,33.0,30.06,WSW,257,0.0,0.0,76,0.00,,,0.00,WeatherCatV1.15B25,2013-04-17 11:31:00,
2013-04-17 04:36:00,39.8,32.5,30.06,WSW,257,0.0,0.0,75,0.00,,,0.00,WeatherCatV1.15B25,2013-04-17 11:36:00,
2013-04-17 04:41:00,39.7,32.4,30.06,WSW,257,0.0,0.0,75,0.00,,,0.00,WeatherCatV1.15B25,2013-04-17 11:41:00,
2013-04-17 04:46:00,39.5,32.2,30.06,WSW,257,0.0,0.0,75,0.00,,,0.00,WeatherCatV1.15B25,2013-04-17 11:46:00,
2013-04-17 04:51:00,39.3,32.4,30.06,WSW,257,0.0,1.0,76,0.00,,,0.00,WeatherCatV1.15B25,2013-04-17 11:51:00,
2013-04-17 04:56:00,39.2,32.3,30.06,WSW,257,0.0,0.0,76,0.00,,,0.00,WeatherCatV1.15B25,2013-04-17 11:56:00,
2013-04-17 05:01:00,39.0,32.1,30.07,WSW,257,0.0,0.0,76,0.00,,,0.00,WeatherCatV1.15B25,2013-04-17 12:01:00,
2013-04-17 05:06:00,39.0,32.4,30.07,WSW,257,0.0,0.0,77,0.00,,,0.00,WeatherCatV1.15B25,2013-04-17 12:06:00,
2013-04-17 05:11:00,39.0,32.4,30.07,WSW,257,0.0,0.0,77,0.00,,,0.00,WeatherCatV1.15B25,2013-04-17 12:11:00,
2013-04-17 05:16:00,39.1,32.5,30.07,WSW,257,0.0,2.0,77,0.00,,,0.00,WeatherCatV1.15B25,2013-04-17 12:16:00,
2013-04-17 05:21:00,39.3,32.7,30.08,WSW,257,0.0,2.0,77,0.00,,,0.00,WeatherCatV1.15B25,2013-04-17 12:21:00,
2013-04-17 05:26:00,39.4,32.8,30.08,WSW,257,0.0,0.0,77,0.00,,,0.00,WeatherCatV1.15B25,2013-04-17 12:26:00,
2013-04-17 05:31:00,39.4,32.5,30.08,WSW,257,1.0,1.0,76,0.00,,,0.00,WeatherCatV1.15B25,2013-04-17 12:31:00,
2013-04-17 05:36:00,39.4,32.5,30.08,WSW,257,1.0,1.0,76,0.00,,,0.00,WeatherCatV1.15B25,2013-04-17 12:36:00,
2013-04-17 05:41:00,39.3,32.4,30.08,WSW,257,1.0,2.0,76,0.00,,,0.00,WeatherCatV1.15B25,2013-04-17 12:41:00,
2013-04-17 05:46:00,39.3,32.7,30.08,WSW,257,0.0,0.0,77,0.00,,,0.00,WeatherCatV1.15B25,2013-04-17 12:46:00,
2013-04-17 05:51:00,39.3,32.7,30.08,WSW,257,2.0,2.0,77,0.00,,,0.00,WeatherCatV1.15B25,2013-04-17 12:51:00,
2013-04-17 05:56:00,39.2,32.6,30.08,WSW,257,0.0,1.0,77,0.00,,,0.00,WeatherCatV1.15B25,2013-04-17 12:56:00,
2013-04-17 06:01:00,39.1,32.5,30.09,WSW,257,0.0,0.0,77,0.00,,,0.00,WeatherCatV1.15B25,2013-04-17 13:01:00,
2013-04-17 06:06:00,39.1,32.5,30.09,WSW,257,0.0,0.0,77,0.00,,,0.00,WeatherCatV1.15B25,2013-04-17 13:06:00,
2013-04-17 06:11:00,39.0,32.4,30.09,WSW,257,0.0,0.0,77,0.00,,,0.00,WeatherCatV1.15B25,2013-04-17 13:11:00,
2013-04-17 06:16:00,38.8,32.2,30.09,WSW,257,0.0,0.0,77,0.00,,,0.00,WeatherCatV1.15B25,2013-04-17 13:16:00,
2013-04-17 06:21:00,38.6,32.0,30.09,WSW,257,0.0,0.0,77,0.00,,,0.00,WeatherCatV1.15B25,2013-04-17 13:21:00,
2013-04-17 06:26:00,38.4,31.8,30.09,WSW,257,0.0,0.0,77,0.00,,,0.00,WeatherCatV1.15B25,2013-04-17 13:26:00,
2013-04-17 06:31:00,38.2,31.6,30.10,WSW,257,0.0,0.0,77,0.00,,,0.00,WeatherCatV1.15B25,2013-04-17 13:31:00,
2013-04-17 06:36:00,37.9,31.3,30.10,WSW,257,0.0,0.0,77,0.00,,,0.00,WeatherCatV1.15B25,2013-04-17 13:36:00,
2013-04-17 06:41:00,37.6,31.4,30.10,WSW,257,0.0,0.0,78,0.00,,,0.00,WeatherCatV1.15B25,2013-04-17 13:41:00,
2013-04-17 06:46:00,37.5,31.6,30.11,WSW,257,0.0,0.0,79,0.00,,,0.00,WeatherCatV1.15B25,2013-04-17 13:46:00,
2013-04-17 06:51:00,37.3,31.4,30.11,WSW,257,0.0,1.0,79,0.00,,,0.00,WeatherCatV1.15B25,2013-04-17 13:51:00,
2013-04-17 06:56:00,37.3,31.7,30.11,WSW,257,0.0,0.0,80,0.00,,,0.00,WeatherCatV1.15B25,2013-04-17 13:56:00,
2013-04-17 07:01:00,37.4,32.1,30.12,WSW,257,0.0,0.0,81,0.00,,,0.00,WeatherCatV1.15B25,2013-04-17 14:01:00,
2013-04-17 07:06:00,37.6,32.6,30.12,WSW,257,0.0,0.0,82,0.00,,,0.00,WeatherCatV1.15B25,2013-04-17 14:06:00,
2013-04-17 07:11:00,37.9,32.9,30.12,WSW,257,0.0,0.0,82,0.00,,,0.00,WeatherCatV1.15B25,2013-04-17 14:11:00,
2013-04-17 07:16:00,38.4,33.4,30.13,WSW,257,1.0,2.0,82,0.00,,,0.00,WeatherCatV1.15B25,2013-04-17 14:16:00,
2013-04-17 07:21:00,39.3,34.0,30.13,WSW,257,1.0,2.0,81,0.00,,,0.00,WeatherCatV1.15B25,2013-04-17 14:21:00,
2013-04-17 07:26:00,40.2,34.5,30.13,WSW,254,0.0,4.0,80,0.00,,,0.00,WeatherCatV1.15B25,2013-04-17 14:26:00,
2013-04-17 07:31:00,41.1,34.4,30.13,WSW,248,2.0,3.0,77,0.00,,,0.00,WeatherCatV1.15B25,2013-04-17 14:31:00,
2013-04-17 07:36:00,41.8,34.8,30.14,WSW,248,1.0,1.0,76,0.00,,,0.00,WeatherCatV1.15B25,2013-04-17 14:36:00,
2013-04-17 07:41:00,42.5,35.5,30.14,WSW,248,0.0,1.0,76,0.00,,,0.00,WeatherCatV1.15B25,2013-04-17 14:41:00,
2013-04-17 07:46:00,43.1,35.7,30.14,WSW,248,0.0,0.0,75,0.00,,,0.00,WeatherCatV1.15B25,2013-04-17 14:46:00,
2013-04-17 07:51:00,43.8,36.1,30.14,WSW,248,0.0,0.0,74,0.00,,,0.00,WeatherCatV1.15B25,2013-04-17 14:51:00,
2013-04-17 07:56:00,44.3,36.2,30.14,WSW,248,0.0,3.0,73,0.00,,,0.00,WeatherCatV1.15B25,2013-04-17 14:56:00,
2013-04-17 08:01:00,45.1,35.9,30.14,WSW,249,0.0,0.0,70,0.00,,,0.00,WeatherCatV1.15B25,2013-04-17 15:01:00,
2013-04-17 08:06:00,45.7,36.5,30.14,WSW,249,0.0,1.0,70,0.00,,,0.00,WeatherCatV1.15B25,2013-04-17 15:06:00,
2013-04-17 08:11:00,46.2,36.6,30.15,West,271,0.0,1.0,69,0.00,,,0.00,WeatherCatV1.15B25,2013-04-17 15:11:00,
2013-04-17 08:16:00,46.8,36.8,30.15,West,271,0.0,1.0,68,0.00,,,0.00,WeatherCatV1.15B25,2013-04-17 15:16:00,
2013-04-17 08:21:00,47.2,36.8,30.15,West,263,1.0,3.0,67,0.00,,,0.00,WeatherCatV1.15B25,2013-04-17 15:21:00,
2013-04-17 08:26:00,47.6,37.6,30.15,West,266,0.0,2.0,68,0.00,,,0.00,WeatherCatV1.15B25,2013-04-17 15:26:00,
2013-04-17 08:31:00,48.1,37.3,30.16,WNW,283,1.0,3.0,66,0.00,,,0.00,WeatherCatV1.15B25,2013-04-17 15:31:00,
2013-04-17 08:36:00,48.6,37.0,30.16,SW,232,0.0,5.0,64,0.00,,,0.00,WeatherCatV1.15B25,2013-04-17 15:36:00,
2013-04-17 08:41:00,49.3,38.0,30.16,West,279,0.0,1.0,65,0.00,,,0.00,WeatherCatV1.15B25,2013-04-17 15:41:00,
2013-04-17 08:46:00,49.7,36.8,30.16,NW,304,0.0,1.0,61,0.00,,,0.00,WeatherCatV1.15B25,2013-04-17 15:46:00,
2013-04-17 08:51:00,50.2,37.3,30.16,West,272,0.0,2.0,61,0.00,,,0.00,WeatherCatV1.15B25,2013-04-17 15:51:00,
2013-04-17 08:56:00,50.6,37.2,30.16,West,272,0.0,1.0,60,0.00,,,0.00,WeatherCatV1.15B25,2013-04-17 15:56:00,
2013-04-17 09:01:00,51.1,37.7,30.16,West,273,0.0,1.0,60,0.00,,,0.00,WeatherCatV1.15B25,2013-04-17 16:01:00,
2013-04-17 09:06:00,51.7,37.8,30.16,WNW,291,0.0,2.0,59,0.00,,,0.00,WeatherCatV1.15B25,2013-04-17 16:06:00,
2013-04-17 09:11:00,51.9,36.7,30.16,WNW,299,0.0,3.0,56,0.00,,,0.00,WeatherCatV1.15B25,2013-04-17 16:11:00,
2013-04-17 09:16:00,52.2,37.0,30.16,WSW,249,2.0,6.0,56,0.00,,,0.00,WeatherCatV1.15B25,2013-04-17 16:16:00,
2013-04-17 09:21:00,52.4,37.2,30.17,WSW,251,0.0,1.0,56,0.00,,,0.00,WeatherCatV1.15B25,2013-04-17 16:21:00,
2013-04-17 09:26:00,53.0,37.7,30.17,West,268,0.0,3.0,56,0.00,,,0.00,WeatherCatV1.15B25,2013-04-17 16:26:00,
2013-04-17 09:31:00,53.3,37.5,30.17,NW,313,0.0,1.0,55,0.00,,,0.00,WeatherCatV1.15B25,2013-04-17 16:31:00,
2013-04-17 09:36:00,53.8,37.5,30.17,NW,311,0.0,5.0,54,0.00,,,0.00,WeatherCatV1.15B25,2013-04-17 16:36:00,
2013-04-17 09:41:00,54.3,38.0,30.17,WSW,237,3.0,6.0,54,0.00,,,0.00,WeatherCatV1.15B25,2013-04-17 16:41:00,
2013-04-17 09:46:00,54.5,37.7,30.17,West,259,0.0,3.0,53,0.00,,,0.00,WeatherCatV1.15B25,2013-04-17 16:46:00,
2013-04-17 09:51:00,54.9,38.1,30.17,NW,325,0.0,4.0,53,0.00,,,0.00,WeatherCatV1.15B25,2013-04-17 16:51:00,
2013-04-17 09:56:00,55.1,37.3,30.17,WSW,250,1.0,4.0,51,0.00,,,0.00,WeatherCatV1.15B25,2013-04-17 16:56:00,
2013-04-17 10:01:00,55.4,38.6,30.17,West,260,1.0,2.0,53,0.00,,,0.00,WeatherCatV1.15B25,2013-04-17 17:01:00,
2013-04-17 10:06:00,55.6,38.3,30.17,NNW,331,0.0,3.0,52,0.00,,,0.00,WeatherCatV1.15B25,2013-04-17 17:06:00,
2013-04-17 10:11:00,56.2,37.8,30.17,WSW,244,2.0,5.0,50,0.00,,,0.00,WeatherCatV1.15B25,2013-04-17 17:11:00,
2013-04-17 10:16:00,56.6,38.7,30.17,WSW,255,0.0,2.0,51,0.00,,,0.00,WeatherCatV1.15B25,2013-04-17 17:16:00,
2013-04-17 10:21:00,56.9,37.9,30.17,West,260,0.0,2.0,49,0.00,,,0.00,WeatherCatV1.15B25,2013-04-17 17:21:00,
2013-04-17 10:26:00,57.2,38.2,30.17,NNW,342,0.0,1.0,49,0.00,,,0.00,WeatherCatV1.15B25,2013-04-17 17:26:00,
2013-04-17 10:31:00,57.3,37.2,30.17,NW,319,1.0,2.0,47,0.00,,,0.00,WeatherCatV1.15B25,2013-04-17 17:31:00,
2013-04-17 10:36:00,57.7,38.7,30.18,West,265,0.0,5.0,49,0.00,,,0.00,WeatherCatV1.15B25,2013-04-17 17:36:00,
2013-04-17 10:42:00,58.4,37.1,30.18,West,274,0.0,2.0,45,0.00,,,0.00,WeatherCatV1.15B25,2013-04-17 17:42:00,
2013-04-17 10:47:00,58.8,37.5,30.18,North,355,2.0,4.0,45,0.00,,,0.00,WeatherCatV1.15B25,2013-04-17 17:47:00,
2013-04-17 10:52:00,59.1,37.2,30.18,WSW,253,2.0,6.0,44,0.00,,,0.00,WeatherCatV1.15B25,2013-04-17 17:52:00,
2013-04-17 10:57:00,59.2,37.3,30.18,WSW,242,2.0,4.0,44,0.00,,,0.00,WeatherCatV1.15B25,2013-04-17 17:57:00,
2013-04-17 11:02:00,59.6,38.8,30.18,SSW,208,0.0,6.0,46,0.00,,,0.00,WeatherCatV1.15B25,2013-04-17 18:02:00,
2013-04-17 11:07:00,60.3,37.7,30.17,SSW,204,0.0,1.0,43,0.00,,,0.00,WeatherCatV1.15B25,2013-04-17 18:07:00,
2013-04-17 11:12:00,60.5,37.9,30.18,WSW,250,0.0,3.0,43,0.00,,,0.00,WeatherCatV1.15B25,2013-04-17 18:12:00,
2013-04-17 11:17:00,60.9,37.7,30.17,SSW,205,2.0,3.0,42,0.00,,,0.00,WeatherCatV1.15B25,2013-04-17 18:17:00,
2013-04-17 11:22:00,61.2,38.5,30.17,SSW,210,2.0,2.0,43,0.00,,,0.00,WeatherCatV1.15B25,2013-04-17 18:22:00,
2013-04-17 11:27:00,61.5,38.8,30.17,NW,326,3.0,3.0,43,0.00,,,0.00,WeatherCatV1.15B25,2013-04-17 18:27:00,
2013-04-17 11:32:00,61.8,39.7,30.17,West,279,0.0,2.0,44,0.00,,,0.00,WeatherCatV1.15B25,2013-04-17 18:32:00,
2013-04-17 11:37:00,61.7,35.8,30.17,NW,317,1.0,1.0,38,0.00,,,0.00,WeatherCatV1.15B25,2013-04-17 18:37:00,
2013-04-17 11:42:00,62.3,39.5,30.17,West,265,0.0,3.0,43,0.00,,,0.00,WeatherCatV1.15B25,2013-04-17 18:42:00,
2013-04-17 11:47:00,62.6,37.9,30.17,WSW,241,0.0,4.0,40,0.00,,,0.00,WeatherCatV1.15B25,2013-04-17 18:47:00,
2013-04-17 11:52:00,62.6,37.3,30.17,SW,221,0.0,4.0,39,0.00,,,0.00,WeatherCatV1.15B25,2013-04-17 18:52:00,
2013-04-17 11:57:00,62.8,36.8,30.17,WSW,247,0.0,3.0,38,0.00,,,0.00,WeatherCatV1.15B25,2013-04-17 18:57:00,
2013-04-17 12:02:00,63.3,38.6,30.17,WSW,248,0.0,1.0,40,0.00,,,0.00,WeatherCatV1.15B25,2013-04-17 19:02:00,
2013-04-17 12:07:00,63.8,37.7,30.17,WSW,238,0.0,3.0,38,0.00,,,0.00,WeatherCatV1.15B25,2013-04-17 19:07:00,
2013-04-17 12:12:00,64.1,37.3,30.17,West,267,2.0,2.0,37,0.00,,,0.00,WeatherCatV1.15B25,2013-04-17 19:12:00,
2013-04-17 12:17:00,64.5,37.0,30.17,SW,233,5.0,9.0,36,0.00,,,0.00,WeatherCatV1.15B25,2013-04-17 19:17:00,
2013-04-17 12:22:00,64.3,36.8,30.16,SW,236,10.0,10.0,36,0.00,,,0.00,WeatherCatV1.15B25,2013-04-17 19:22:00,
2013-04-17 12:27:00,64.4,38.2,30.16,NW,311,1.0,6.0,38,0.00,,,0.00,WeatherCatV1.15B25,2013-04-17 19:27:00,
2013-04-17 12:32:00,64.6,37.7,30.16,West,273,2.0,5.0,37,0.00,,,0.00,WeatherCatV1.15B25,2013-04-17 19:32:00,
2013-04-17 12:37:00,64.7,36.4,30.16,NW,306,0.0,3.0,35,0.00,,,0.00,WeatherCatV1.15B25,2013-04-17 19:37:00,
2013-04-17 12:42:00,65.2,38.3,30.16,NNW,333,1.0,5.0,37,0.00,,,0.00,WeatherCatV1.15B25,2013-04-17 19:42:00,
2013-04-17 12:47:00,65.4,36.3,30.16,WNW,300,2.0,9.0,34,0.00,,,0.00,WeatherCatV1.15B25,2013-04-17 19:47:00,
2013-04-17 12:52:00,66.0,36.8,30.16,ENE,68,1.0,3.0,34,0.00,,,0.00,WeatherCatV1.15B25,2013-04-17 19:52:00,
2013-04-17 12:57:00,66.4,37.9,30.15,WSW,252,2.0,10.0,35,0.00,,,0.00,WeatherCatV1.15B25,2013-04-17 19:57:00,
2013-04-17 13:02:00,66.5,36.5,30.15,WNW,290,4.0,12.0,33,0.00,,,0.00,WeatherCatV1.15B25,2013-04-17 20:02:00,
2013-04-17 13:07:00,66.3,34.8,30.15,WNW,294,2.0,6.0,31,0.00,,,0.00,WeatherCatV1.15B25,2013-04-17 20:07:00,
2013-04-17 13:12:00,66.7,35.1,30.15,NW,314,0.0,3.0,31,0.00,,,0.00,WeatherCatV1.15B25,2013-04-17 20:12:00,
2013-04-17 13:17:00,67.2,37.1,30.15,WNW,284,0.0,1.0,33,0.00,,,0.00,WeatherCatV1.15B25,2013-04-17 20:17:00,
2013-04-17 13:22:00,67.5,35.8,30.15,West,262,2.0,7.0,31,0.00,,,0.00,WeatherCatV1.15B25,2013-04-17 20:22:00,
2013-04-17 13:27:00,67.6,35.1,30.15,West,267,2.0,9.0,30,0.00,,,0.00,WeatherCatV1.15B25,2013-04-17 20:27:00,
2013-04-17 13:32:00,67.6,31.5,30.15,NNW,334,6.0,11.0,26,0.00,,,0.00,WeatherCatV1.15B25,2013-04-17 20:32:00,
2013-04-17 13:37:00,67.3,31.2,30.14,NW,309,0.0,5.0,26,0.00,,,0.00,WeatherCatV1.15B25,2013-04-17 20:37:00,
2013-04-17 13:42:00,67.4,32.3,30.14,NW,323,4.0,10.0,27,0.00,,,0.00,WeatherCatV1.15B25,2013-04-17 20:42:00,
2013-04-17 13:47:00,67.5,29.4,30.14,NNW,327,0.0,7.0,24,0.00,,,0.00,WeatherCatV1.15B25,2013-04-17 20:47:00,
2013-04-17 13:52:00,67.9,33.6,30.14,WSW,240,6.0,11.0,28,0.00,,,0.00,WeatherCatV1.15B25,2013-04-17 20:52:00,
2013-04-17 13:57:00,68.2,31.0,30.14,West,269,1.0,4.0,25,0.00,,,0.00,WeatherCatV1.15B25,2013-04-17 20:57:00,
2013-04-17 14:02:00,68.4,34.0,30.13,WNW,290,0.0,4.0,28,0.00,,,0.00,WeatherCatV1.15B25,2013-04-17 21:02:00,
2013-04-17 14:07:00,68.6,31.4,30.13,NNW,335,2.0,5.0,25,0.00,,,0.00,WeatherCatV1.15B25,2013-04-17 21:07:00,
2013-04-17 14:12:00,68.9,31.6,30.13,West,276,0.0,3.0,25,0.00,,,0.00,WeatherCatV1.15B25,2013-04-17 21:12:00,
2013-04-17 14:17:00,69.0,32.7,30.13,WNW,302,0.0,4.0,26,0.00,,,0.00,WeatherCatV1.15B25,2013-04-17 21:17:00,
2013-04-17 14:22:00,69.4,32.0,30.13,WSW,258,0.0,9.0,25,0.00,,,0.00,WeatherCatV1.15B25,2013-04-17 21:22:00,
2013-04-17 14:27:00,69.6,32.2,30.13,WNW,289,1.0,9.0,25,0.00,,,0.00,WeatherCatV1.15B25,2013-04-17 21:27:00,
2013-04-17 14:32:00,69.4,32.0,30.13,NNW,341,5.0,7.0,25,0.00,,,0.00,WeatherCatV1.15B25,2013-04-17 21:32:00,
2013-04-17 14:37:00,68.7,29.4,30.13,NW,326,1.0,6.0,23,0.00,,,0.00,WeatherCatV1.15B25,2013-04-17 21:37:00,
2013-04-17 14:42:00,68.5,27.0,30.13,NNW,329,2.0,6.0,21,0.00,,,0.00,WeatherCatV1.15B25,2013-04-17 21:42:00,
2013-04-17 14:47:00,68.6,30.4,30.12,SW,226,2.0,5.0,24,0.00,,,0.00,WeatherCatV1.15B25,2013-04-17 21:47:00,
2013-04-17 14:52:00,69.0,31.7,30.12,North,350,4.0,5.0,25,0.00,,,0.00,WeatherCatV1.15B25,2013-04-17 21:52:00,
2013-04-17 14:57:00,69.0,30.7,30.12,North,11,3.0,9.0,24,0.00,,,0.00,WeatherCatV1.15B25,2013-04-17 21:57:00,
2013-04-17 15:02:00,68.9,34.4,30.12,WSW,237,1.0,4.0,28,0.00,,,0.00,WeatherCatV1.15B25,2013-04-17 22:02:00,
2013-04-17 15:07:00,69.1,33.7,30.11,NW,321,5.0,7.0,27,0.00,,,0.00,WeatherCatV1.15B25,2013-04-17 22:07:00,
2013-04-17 15:12:00,69.1,31.8,30.11,North,0,5.0,5.0,25,0.00,,,0.00,WeatherCatV1.15B25,2013-04-17 22:12:00,
2013-04-17 15:17:00,69.1,32.8,30.11,NW,322,2.0,3.0,26,0.00,,,0.00,WeatherCatV1.15B25,2013-04-17 22:17:00,
2013-04-17 15:22:00,69.4,28.9,30.11,NW,321,0.0,8.0,22,0.00,,,0.00,WeatherCatV1.15B25,2013-04-17 22:22:00,
2013-04-17 15:27:00,69.6,30.2,30.11,NNW,340,4.0,9.0,23,0.00,,,0.00,WeatherCatV1.15B25,2013-04-17 22:27:00,
2013-04-17 15:32:00,69.9,34.4,30.11,North,350,0.0,1.0,27,0.00,,,0.00,WeatherCatV1.15B25,2013-04-17 22:32:00,
2013-04-17 15:37:00,70.3,33.8,30.10,NW,306,2.0,2.0,26,0.00,,,0.00,WeatherCatV1.15B25,2013-04-17 22:37:00,
2013-04-17 15:42:00,70.5,34.0,30.10,WSW,242,0.0,2.0,26,0.00,,,0.00,WeatherCatV1.15B25,2013-04-17 22:42:00,
2013-04-17 15:47:00,70.6,29.9,30.10,NW,323,4.0,10.0,22,0.00,,,0.00,WeatherCatV1.15B25,2013-04-17 22:47:00,
2013-04-17 15:52:00,69.9,30.4,30.10,North,5,4.0,5.0,23,0.00,,,0.00,WeatherCatV1.15B25,2013-04-17 22:52:00,
2013-04-17 15:57:00,69.8,32.4,30.10,NNW,329,3.0,5.0,25,0.00,,,0.00,WeatherCatV1.15B25,2013-04-17 22:57:00,
2013-04-17 16:02:00,69.8,32.4,30.10,NNW,327,6.0,7.0,25,0.00,,,0.00,WeatherCatV1.15B25,2013-04-17 23:02:00,
2013-04-17 16:07:00,69.7,30.2,30.10,NNW,340,3.0,6.0,23,0.00,,,0.00,WeatherCatV1.15B25,2013-04-17 23:07:00,
2013-04-17 16:12:00,69.9,30.4,30.10,WSW,252,2.0,5.0,23,0.00,,,0.00,WeatherCatV1.15B25,2013-04-17 23:12:00,
2013-04-17 16:17:00,70.2,30.7,30.10,SSW,208,4.0,6.0,23,0.00,,,0.00,WeatherCatV1.15B25,2013-04-17 23:17:00,
2013-04-17 16:22:00,70.6,31.0,30.10,WSW,254,0.0,1.0,23,0.00,,,0.00,WeatherCatV1.15B25,2013-04-17 23:22:00,
2013-04-17 16:27:00,70.7,32.1,30.10,NNW,330,0.0,3.0,24,0.00,,,0.00,WeatherCatV1.15B25,2013-04-17 23:27:00,
2013-04-17 16:32:00,70.7,30.0,30.10,WSW,240,6.0,6.0,22,0.00,,,0.00,WeatherCatV1.15B25,2013-04-17 23:32:00,
2013-04-17 16:37:00,70.5,29.8,30.10,NNW,345,6.0,11.0,22,0.00,,,0.00,WeatherCatV1.15B25,2013-04-17 23:37:00,
2013-04-17 16:42:00,70.3,30.7,30.10,NW,306,5.0,7.0,23,0.00,,,0.00,WeatherCatV1.15B25,2013-04-17 23:42:00,
2013-04-17 16:47:00,70.1,28.4,30.10,NW,326,1.0,3.0,21,0.00,,,0.00,WeatherCatV1.15B25,2013-04-17 23:47:00,
2013-04-17 16:52:00,70.2,32.7,30.09,WNW,300,0.0,1.0,25,0.00,,,0.00,WeatherCatV1.15B25,2013-04-17 23:52:00,
2013-04-17 16:57:00,70.4,30.8,30.09,North,355,3.0,5.0,23,0.00,,,0.00,WeatherCatV1.15B25,2013-04-17 23:57:00,
2013-04-17 17:02:00,70.3,30.7,30.09,NNW,338,0.0,6.0,23,0.00,,,0.00,WeatherCatV1.15B25,2013-04-18 00:02:00,
2013-04-17 17:07:00,70.4,30.8,30.10,West,275,1.0,3.0,23,0.00,,,0.00,WeatherCatV1.15B25,2013-04-18 00:07:00,
2013-04-17 17:12:00,70.6,29.9,30.09,WSW,245,0.0,5.0,22,0.00,,,0.00,WeatherCatV1.15B25,2013-04-18 00:12:00,
2013-04-17 17:17:00,70.7,31.1,30.09,NW,318,1.0,6.0,23,0.00,,,0.00,WeatherCatV1.15B25,2013-04-18 00:17:00,
2013-04-17 17:22:00,70.7,32.1,30.09,SW,226,1.0,2.0,24,0.00,,,0.00,WeatherCatV1.15B25,2013-04-18 00:22:00,
2013-04-17 17:27:00,70.7,31.1,30.09,West,261,0.0,3.0,23,0.00,,,0.00,WeatherCatV1.15B25,2013-04-18 00:27:00,
2013-04-17 17:32:00,70.6,27.6,30.10,WSW,250,0.0,7.0,20,0.00,,,0.00,WeatherCatV1.15B25,2013-04-18 00:32:00,
2013-04-17 17:37:00,70.6,29.9,30.09,WSW,249,0.0,1.0,22,0.00,,,0.00,WeatherCatV1.15B25,2013-04-18 00:37:00,
2013-04-17 17:42:00,70.6,29.9,30.09,West,279,1.0,3.0,22,0.00,,,0.00,WeatherCatV1.15B25,2013-04-18 00:42:00,
2013-04-17 17:47:00,70.4,28.6,30.09,SW,232,0.0,3.0,21,0.00,,,0.00,WeatherCatV1.15B25,2013-04-18 00:47:00,
2013-04-17 17:52:00,70.5,29.8,30.09,WSW,243,1.0,2.0,22,0.00,,,0.00,WeatherCatV1.15B25,2013-04-18 00:52:00,
2013-04-17 17:57:00,70.4,29.7,30.09,WSW,249,3.0,5.0,22,0.00,,,0.00,WeatherCatV1.15B25,2013-04-18 00:57:00,
2013-04-17 18:02:00,70.3,29.7,30.09,NNW,327,0.0,5.0,22,0.00,,,0.00,WeatherCatV1.15B25,2013-04-18 01:02:00,
2013-04-17 18:07:00,70.2,28.4,30.10,WNW,289,1.0,2.0,21,0.00,,,0.00,WeatherCatV1.15B25,2013-04-18 01:07:00,
2013-04-17 18:12:00,70.0,28.3,30.10,West,279,0.0,2.0,21,0.00,,,0.00,WeatherCatV1.15B25,2013-04-18 01:12:00,
2013-04-17 18:17:00,69.7,28.0,30.10,WSW,239,1.0,3.0,21,0.00,,,0.00,WeatherCatV1.15B25,2013-04-18 01:17:00,
2013-04-17 18:22:00,69.5,27.9,30.10,WSW,258,0.0,1.0,21,0.00,,,0.00,WeatherCatV1.15B25,2013-04-18 01:22:00,
2013-04-17 18:27:00,69.3,27.7,30.10,SW,229,0.0,4.0,21,0.00,,,0.00,WeatherCatV1.15B25,2013-04-18 01:27:00,
2013-04-17 18:32:00,69.1,29.7,30.10,WSW,253,3.0,3.0,23,0.00,,,0.00,WeatherCatV1.15B25,2013-04-18 01:32:00,
2013-04-17 18:37:00,68.9,28.5,30.09,WSW,241,0.0,5.0,22,0.00,,,0.00,WeatherCatV1.15B25,2013-04-18 01:37:00,
2013-04-17 18:42:00,68.5,29.2,30.09,WSW,237,0.0,3.0,23,0.00,,,0.00,WeatherCatV1.15B25,2013-04-18 01:42:00,
2013-04-17 18:47:00,68.3,31.1,30.10,WSW,237,1.0,1.0,25,0.00,,,0.00,WeatherCatV1.15B25,2013-04-18 01:47:00,
2013-04-17 18:52:00,67.9,30.8,30.10,WSW,238,0.0,1.0,25,0.00,,,0.00,WeatherCatV1.15B25,2013-04-18 01:52:00,
2013-04-17 18:57:00,67.5,30.4,30.10,WSW,238,0.0,1.0,25,0.00,,,0.00,WeatherCatV1.15B25,2013-04-18 01:57:00,
2013-04-17 19:02:00,67.2,30.2,30.10,WSW,238,0.0,0.0,25,0.00,,,0.00,WeatherCatV1.15B25,2013-04-18 02:02:00,
2013-04-17 19:07:00,67.0,30.0,30.10,WSW,239,0.0,1.0,25,0.00,,,0.00,WeatherCatV1.15B25,2013-04-18 02:07:00,
2013-04-17 19:12:00,66.7,31.7,30.10,WSW,239,0.0,1.0,27,0.00,,,0.00,WeatherCatV1.15B25,2013-04-18 02:12:00,
2013-04-17 19:17:00,66.3,31.3,30.10,WSW,238,0.0,0.0,27,0.00,,,0.00,WeatherCatV1.15B25,2013-04-18 02:17:00,
2013-04-17 19:22:00,65.8,31.8,30.10,WSW,239,0.0,0.0,28,0.00,,,0.00,WeatherCatV1.15B25,2013-04-18 02:22:00,
2013-04-17 19:27:00,65.2,31.3,30.10,WSW,239,0.0,0.0,28,0.00,,,0.00,WeatherCatV1.15B25,2013-04-18 02:27:00,
2013-04-17 19:32:00,64.6,32.5,30.10,WSW,238,0.0,0.0,30,0.00,,,0.00,WeatherCatV1.15B25,2013-04-18 02:32:00,
2013-04-17 19:37:00,63.7,32.5,30.11,WSW,238,0.0,0.0,31,0.00,,,0.00,WeatherCatV1.15B25,2013-04-18 02:37:00,
2013-04-17 19:42:00,62.7,33.2,30.11,WSW,238,0.0,0.0,33,0.00,,,0.00,WeatherCatV1.15B25,2013-04-18 02:42:00,
2013-04-17 19:47:00,61.6,33.7,30.11,NNE,24,0.0,0.0,35,0.00,,,0.00,WeatherCatV1.15B25,2013-04-18 02:47:00,
2013-04-17 19:52:00,60.5,33.4,30.11,NNE,24,0.0,0.0,36,0.00,,,0.00,WeatherCatV1.15B25,2013-04-18 02:52:00,
2013-04-17 19:57:00,59.5,33.2,30.11,NNE,24,0.0,0.0,37,0.00,,,0.00,WeatherCatV1.15B25,2013-04-18 02:57:00,
2013-04-17 20:02:00,58.6,33.7,30.11,NNE,24,0.0,0.0,39,0.00,,,0.00,WeatherCatV1.15B25,2013-04-18 03:02:00,
2013-04-17 20:07:00,57.9,33.7,30.11,NNE,24,0.0,0.0,40,0.00,,,0.00,WeatherCatV1.15B25,2013-04-18 03:07:00,
2013-04-17 20:12:00,57.1,34.2,30.11,NNE,24,0.0,0.0,42,0.00,,,0.00,WeatherCatV1.15B25,2013-04-18 03:12:00,
2013-04-17 20:17:00,56.1,35.1,30.11,NNE,24,0.0,0.0,45,0.00,,,0.00,WeatherCatV1.15B25,2013-04-18 03:17:00,
2013-04-17 20:22:00,55.4,35.0,30.12,NNE,24,0.0,0.0,46,0.00,,,0.00,WeatherCatV1.15B25,2013-04-18 03:22:00,
2013-04-17 20:27:00,54.8,35.5,30.12,NNE,24,0.0,0.0,48,0.00,,,0.00,WeatherCatV1.15B25,2013-04-18 03:27:00,
2013-04-17 20:32:00,54.4,34.1,30.12,NNE,24,0.0,0.0,46,0.00,,,0.00,WeatherCatV1.15B25,2013-04-18 03:32:00,
2013-04-17 20:37:00,54.2,33.9,30.13,NNE,24,0.0,0.0,46,0.00,,,0.00,WeatherCatV1.15B25,2013-04-18 03:37:00,
2013-04-17 20:42:00,54.1,33.8,30.13,NNE,24,0.0,1.0,46,0.00,,,0.00,WeatherCatV1.15B25,2013-04-18 03:42:00,
2013-04-17 20:47:00,54.1,34.3,30.13,NNE,24,0.0,0.0,47,0.00,,,0.00,WeatherCatV1.15B25,2013-04-18 03:47:00,
2013-04-17 20:52:00,54.1,33.8,30.13,NNE,24,0.0,0.0,46,0.00,,,0.00,WeatherCatV1.15B25,2013-04-18 03:52:00,
2013-04-17 20:57:00,54.1,33.8,30.13,NNE,24,0.0,0.0,46,0.00,,,0.00,WeatherCatV1.15B25,2013-04-18 03:57:00,
2013-04-17 21:01:00,54.2,33.9,30.13,NNE,24,0.0,0.0,46,0.00,,,0.00,WeatherCatV1.15B25,2013-04-18 04:01:00,
2013-04-17 21:06:00,54.1,33.2,30.14,NNE,24,0.0,0.0,45,0.00,,,0.00,WeatherCatV1.15B25,2013-04-18 04:06:00,
2013-04-17 21:11:00,54.0,34.2,30.14,NNE,24,0.0,1.0,47,0.00,,,0.00,WeatherCatV1.15B25,2013-04-18 04:11:00,
2013-04-17 21:16:00,53.9,34.1,30.14,NNE,24,0.0,0.0,47,0.00,,,0.00,WeatherCatV1.15B25,2013-04-18 04:16:00,
2013-04-17 21:21:00,53.7,34.0,30.14,NNE,24,0.0,0.0,47,0.00,,,0.00,WeatherCatV1.15B25,2013-04-18 04:21:00,
2013-04-17 21:26:00,53.6,34.4,30.14,NNE,24,0.0,0.0,48,0.00,,,0.00,WeatherCatV1.15B25,2013-04-18 04:26:00,
2013-04-17 21:31:00,53.4,34.2,30.14,NNE,24,0.0,0.0,48,0.00,,,0.00,WeatherCatV1.15B25,2013-04-18 04:31:00,
2013-04-17 21:36:00,53.2,34.0,30.14,NNE,24,0.0,0.0,48,0.00,,,0.00,WeatherCatV1.15B25,2013-04-18 04:36:00,
2013-04-17 21:41:00,52.9,34.3,30.15,NNE,24,0.0,0.0,49,0.00,,,0.00,WeatherCatV1.15B25,2013-04-18 04:41:00,
2013-04-17 21:46:00,52.5,34.4,30.15,NNE,24,0.0,0.0,50,0.00,,,0.00,WeatherCatV1.15B25,2013-04-18 04:46:00,
2013-04-17 21:51:00,52.2,34.1,30.15,NNE,24,0.0,0.0,50,0.00,,,0.00,WeatherCatV1.15B25,2013-04-18 04:51:00,
2013-04-17 21:56:00,51.9,33.8,30.15,NNE,24,0.0,0.0,50,0.00,,,0.00,WeatherCatV1.15B25,2013-04-18 04:56:00,
2013-04-17 22:01:00,51.6,33.6,30.15,WNW,296,1.0,1.0,50,0.00,,,0.00,WeatherCatV1.15B25,2013-04-18 05:01:00,
2013-04-17 22:06:00,51.8,33.3,30.15,West,267,1.0,2.0,49,0.00,,,0.00,WeatherCatV1.15B25,2013-04-18 05:06:00,
2013-04-17 22:11:00,52.3,34.2,30.15,West,261,0.0,0.0,50,0.00,,,0.00,WeatherCatV1.15B25,2013-04-18 05:11:00,
2013-04-17 22:16:00,52.7,34.1,30.15,West,259,1.0,3.0,49,0.00,,,0.00,WeatherCatV1.15B25,2013-04-18 05:16:00,
2013-04-17 22:21:00,53.1,33.9,30.15,West,259,0.0,1.0,48,0.00,,,0.00,WeatherCatV1.15B25,2013-04-18 05:21:00,
2013-04-17 22:26:00,53.5,34.8,30.15,West,259,0.0,2.0,49,0.00,,,0.00,WeatherCatV1.15B25,2013-04-18 05:26:00,
2013-04-17 22:31:00,53.6,34.9,30.15,West,259,0.0,1.0,49,0.00,,,0.00,WeatherCatV1.15B25,2013-04-18 05:31:00,
2013-04-17 22:36:00,53.6,34.9,30.15,West,259,0.0,0.0,49,0.00,,,0.00,WeatherCatV1.15B25,2013-04-18 05:36:00,
2013-04-17 22:41:00,53.5,34.8,30.15,West,259,0.0,1.0,49,0.00,,,0.00,WeatherCatV1.15B25,2013-04-18 05:41:00,
2013-04-17 22:46:00,53.3,34.6,30.15,West,259,0.0,1.0,49,0.00,,,0.00,WeatherCatV1.15B25,2013-04-18 05:46:00,
2013-04-17 22:51:00,53.2,34.0,30.15,WSW,258,0.0,1.0,48,0.00,,,0.00,WeatherCatV1.15B25,2013-04-18 05:51:00,
2013-04-17 22:56:00,53.2,34.5,30.15,WSW,257,0.0,1.0,49,0.00,,,0.00,WeatherCatV1.15B25,2013-04-18 05:56:00,
2013-04-17 23:01:00,53.1,33.9,30.16,WSW,258,2.0,2.0,48,0.00,,,0.00,WeatherCatV1.15B25,2013-04-18 06:01:00,
2013-04-17 23:06:00,53.0,33.8,30.16,WSW,258,0.0,1.0,48,0.00,,,0.00,WeatherCatV1.15B25,2013-04-18 06:06:00,
2013-04-17 23:11:00,52.8,34.2,30.16,WSW,258,0.0,1.0,49,0.00,,,0.00,WeatherCatV1.15B25,2013-04-18 06:11:00,
2013-04-17 23:16:00,52.6,34.5,30.16,WSW,258,0.0,0.0,50,0.00,,,0.00,WeatherCatV1.15B25,2013-04-18 06:16:00,
2013-04-17 23:21:00,52.4,34.3,30.16,WSW,258,0.0,0.0,50,0.00,,,0.00,WeatherCatV1.15B25,2013-04-18 06:21:00,
2013-04-17 23:26:00,52.2,34.1,30.16,WSW,258,0.0,0.0,50,0.00,,,0.00,WeatherCatV1.15B25,2013-04-18 06:26:00,
2013-04-17 23:31:00,51.9,34.3,30.16,WSW,257,0.0,0.0,51,0.00,,,0.00,WeatherCatV1.15B25,2013-04-18 06:31:00,
2013-04-17 23:36:00,51.5,34.0,30.16,WSW,258,0.0,0.0,51,0.00,,,0.00,WeatherCatV1.15B25,2013-04-18 06:36:00,
2013-04-17 23:41:00,51.0,34.0,30.16,WSW,258,0.0,0.0,52,0.00,,,0.00,WeatherCatV1.15B25,2013-04-18 06:41:00,
2013-04-17 23:46:00,50.6,33.6,30.16,WSW,257,0.0,0.0,52,0.00,,,0.00,WeatherCatV1.15B25,2013-04-18 06:46:00,
2013-04-17 23:51:00,50.1,33.2,30.16,WSW,257,0.0,0.0,52,0.00,,,0.00,WeatherCatV1.15B25,2013-04-18 06:51:00,
2013-04-17 23:56:00,49.6,33.2,30.16,WSW,258,0.0,0.0,53,0.00,,,0.00,WeatherCatV1.15B25,2013-04-18 06:56:00,